sensor_id;sensor_type;location;lat;lon;timestamp;pressure;altitude;pressure_sealevel;temperature
13410;BMP180;6775;49.574;11.170;2023-09-19T00:00:47;97079.53;;;16.67
13410;BMP180;6775;49.574;11.170;2023-09-19T00:03:17;97080.50;;;16.66
13410;BMP180;6775;49.574;11.170;2023-09-19T00:05:46;97088.63;;;16.64
13410;BMP180;6775;49.574;11.170;2023-09-19T00:08:14;97088.69;;;16.56
13410;BMP180;6775;49.574;11.170;2023-09-19T00:10:43;97081.56;;;16.50
13410;BMP180;6775;49.574;11.170;2023-09-19T00:13:11;97084.81;;;16.44
13410;BMP180;6775;49.574;11.170;2023-09-19T00:15:44;97084.34;;;16.40
13410;BMP180;6775;49.574;11.170;2023-09-19T00:18:18;97085.53;;;16.30
13410;BMP180;6775;49.574;11.170;2023-09-19T00:20:50;97095.41;;;16.26
13410;BMP180;6775;49.574;11.170;2023-09-19T00:23:19;97091.03;;;16.27
13410;BMP180;6775;49.574;11.170;2023-09-19T00:25:48;97092.47;;;16.29
13410;BMP180;6775;49.574;11.170;2023-09-19T00:28:17;97089.88;;;16.29
13410;BMP180;6775;49.574;11.170;2023-09-19T00:30:47;97092.63;;;16.28
13410;BMP180;6775;49.574;11.170;2023-09-19T00:33:18;97097.81;;;16.28
13410;BMP180;6775;49.574;11.170;2023-09-19T00:35:47;97097.50;;;16.31
13410;BMP180;6775;49.574;11.170;2023-09-19T00:38:16;97103.97;;;16.35
13410;BMP180;6775;49.574;11.170;2023-09-19T00:40:48;97107.56;;;16.34
13410;BMP180;6775;49.574;11.170;2023-09-19T00:43:18;97099.28;;;16.22
13410;BMP180;6775;49.574;11.170;2023-09-19T00:45:49;97104.34;;;16.08
13410;BMP180;6775;49.574;11.170;2023-09-19T00:48:20;97106.78;;;15.94
13410;BMP180;6775;49.574;11.170;2023-09-19T00:50:50;97117.16;;;15.86
13410;BMP180;6775;49.574;11.170;2023-09-19T00:53:22;97123.63;;;15.82
13410;BMP180;6775;49.574;11.170;2023-09-19T00:55:52;97128.97;;;15.80
13410;BMP180;6775;49.574;11.170;2023-09-19T00:58:20;97123.00;;;15.80
13410;BMP180;6775;49.574;11.170;2023-09-19T01:00:49;97122.16;;;15.79
13410;BMP180;6775;49.574;11.170;2023-09-19T01:03:22;97132.53;;;15.79
13410;BMP180;6775;49.574;11.170;2023-09-19T01:05:51;97130.59;;;15.81
13410;BMP180;6775;49.574;11.170;2023-09-19T01:08:19;97141.44;;;15.85
13410;BMP180;6775;49.574;11.170;2023-09-19T01:10:54;97136.44;;;15.91
13410;BMP180;6775;49.574;11.170;2023-09-19T01:13:31;97135.44;;;15.92
13410;BMP180;6775;49.574;11.170;2023-09-19T01:16:11;97138.34;;;15.89
13410;BMP180;6775;49.574;11.170;2023-09-19T01:19:22;97136.75;;;15.88
13410;BMP180;6775;49.574;11.170;2023-09-19T01:22:00;97139.69;;;15.85
13410;BMP180;6775;49.574;11.170;2023-09-19T01:25:07;97152.94;;;15.82
13410;BMP180;6775;49.574;11.170;2023-09-19T01:28:18;97147.44;;;15.85
13410;BMP180;6775;49.574;11.170;2023-09-19T01:30:56;97151.97;;;15.91
13410;BMP180;6775;49.574;11.170;2023-09-19T01:33:25;97145.50;;;15.95
13410;BMP180;6775;49.574;11.170;2023-09-19T01:35:54;97146.16;;;15.97
13410;BMP180;6775;49.574;11.170;2023-09-19T01:38:25;97150.38;;;15.98
13410;BMP180;6775;49.574;11.170;2023-09-19T01:41:03;97149.69;;;15.96
13410;BMP180;6775;49.574;11.170;2023-09-19T01:43:38;97154.09;;;15.96
13410;BMP180;6775;49.574;11.170;2023-09-19T01:46:19;97153.56;;;15.92
13410;BMP180;6775;49.574;11.170;2023-09-19T01:49:00;97151.16;;;15.91
13410;BMP180;6775;49.574;11.170;2023-09-19T01:51:44;97155.22;;;15.93
13410;BMP180;6775;49.574;11.170;2023-09-19T01:54:24;97155.72;;;15.97
13410;BMP180;6775;49.574;11.170;2023-09-19T01:57:03;97155.22;;;16.01
13410;BMP180;6775;49.574;11.170;2023-09-19T01:59:41;97153.91;;;16.05
13410;BMP180;6775;49.574;11.170;2023-09-19T02:02:13;97149.38;;;16.07
13410;BMP180;6775;49.574;11.170;2023-09-19T02:04:43;97151.81;;;16.09
13410;BMP180;6775;49.574;11.170;2023-09-19T02:07:11;97155.19;;;16.09
13410;BMP180;6775;49.574;11.170;2023-09-19T02:09:43;97148.88;;;16.12
13410;BMP180;6775;49.574;11.170;2023-09-19T02:12:11;97151.31;;;16.13
13410;BMP180;6775;49.574;11.170;2023-09-19T02:14:41;97159.88;;;16.13
13410;BMP180;6775;49.574;11.170;2023-09-19T02:17:09;97152.94;;;16.14
13410;BMP180;6775;49.574;11.170;2023-09-19T02:19:39;97168.16;;;16.17
13410;BMP180;6775;49.574;11.170;2023-09-19T02:22:08;97159.09;;;16.21
13410;BMP180;6775;49.574;11.170;2023-09-19T02:24:37;97165.41;;;16.26
13410;BMP180;6775;49.574;11.170;2023-09-19T02:27:05;97164.91;;;16.31
13410;BMP180;6775;49.574;11.170;2023-09-19T02:29:34;97162.19;;;16.32
13410;BMP180;6775;49.574;11.170;2023-09-19T02:32:03;97161.34;;;16.32
13410;BMP180;6775;49.574;11.170;2023-09-19T02:34:31;97166.22;;;16.35
13410;BMP180;6775;49.574;11.170;2023-09-19T02:37:05;97166.88;;;16.37
13410;BMP180;6775;49.574;11.170;2023-09-19T02:39:33;97170.09;;;16.39
13410;BMP180;6775;49.574;11.170;2023-09-19T02:42:01;97169.44;;;16.45
13410;BMP180;6775;49.574;11.170;2023-09-19T02:44:30;97167.34;;;16.48
13410;BMP180;6775;49.574;11.170;2023-09-19T02:46:59;97174.97;;;16.50
13410;BMP180;6775;49.574;11.170;2023-09-19T02:49:27;97173.00;;;16.52
13410;BMP180;6775;49.574;11.170;2023-09-19T02:51:56;97173.63;;;16.62
13410;BMP180;6775;49.574;11.170;2023-09-19T02:54:27;97180.56;;;16.69
13410;BMP180;6775;49.574;11.170;2023-09-19T02:56:55;97189.47;;;16.74
13410;BMP180;6775;49.574;11.170;2023-09-19T02:59:23;97178.59;;;16.79
13410;BMP180;6775;49.574;11.170;2023-09-19T03:01:51;97184.91;;;16.84
13410;BMP180;6775;49.574;11.170;2023-09-19T03:04:21;97183.75;;;16.87
13410;BMP180;6775;49.574;11.170;2023-09-19T03:06:49;97183.59;;;16.88
13410;BMP180;6775;49.574;11.170;2023-09-19T03:09:18;97185.84;;;16.91
13410;BMP180;6775;49.574;11.170;2023-09-19T03:11:47;97192.47;;;16.94
13410;BMP180;6775;49.574;11.170;2023-09-19T03:14:16;97189.06;;;16.93
13410;BMP180;6775;49.574;11.170;2023-09-19T03:16:46;97206.28;;;16.94
13410;BMP180;6775;49.574;11.170;2023-09-19T03:19:15;97202.06;;;16.93
13410;BMP180;6775;49.574;11.170;2023-09-19T03:21:43;97206.63;;;16.91
13410;BMP180;6775;49.574;11.170;2023-09-19T03:24:11;97206.13;;;16.88
13410;BMP180;6775;49.574;11.170;2023-09-19T03:26:39;97207.28;;;16.85
13410;BMP180;6775;49.574;11.170;2023-09-19T03:29:08;97206.00;;;16.81
13410;BMP180;6775;49.574;11.170;2023-09-19T03:31:37;97201.31;;;16.77
13410;BMP180;6775;49.574;11.170;2023-09-19T03:34:05;97207.63;;;16.74
13410;BMP180;6775;49.574;11.170;2023-09-19T03:36:33;97203.75;;;16.70
13410;BMP180;6775;49.574;11.170;2023-09-19T03:39:01;97202.78;;;16.64
13410;BMP180;6775;49.574;11.170;2023-09-19T03:41:32;97199.09;;;16.58
13410;BMP180;6775;49.574;11.170;2023-09-19T03:44:00;97193.41;;;16.55
13410;BMP180;6775;49.574;11.170;2023-09-19T03:46:29;97200.56;;;16.53
13410;BMP180;6775;49.574;11.170;2023-09-19T03:48:59;97201.69;;;16.50
13410;BMP180;6775;49.574;11.170;2023-09-19T03:51:27;97201.22;;;16.47
13410;BMP180;6775;49.574;11.170;2023-09-19T03:53:55;97194.75;;;16.43
13410;BMP180;6775;49.574;11.170;2023-09-19T03:56:23;97206.06;;;16.42
13410;BMP180;6775;49.574;11.170;2023-09-19T03:58:51;97206.06;;;16.42
13410;BMP180;6775;49.574;11.170;2023-09-19T04:01:19;97213.84;;;16.42
13410;BMP180;6775;49.574;11.170;2023-09-19T04:03:49;97211.75;;;16.37
13410;BMP180;6775;49.574;11.170;2023-09-19T04:06:18;97208.38;;;16.37
13410;BMP180;6775;49.574;11.170;2023-09-19T04:08:47;97217.13;;;16.36
13410;BMP180;6775;49.574;11.170;2023-09-19T04:11:15;97215.31;;;16.36
13410;BMP180;6775;49.574;11.170;2023-09-19T04:13:43;97209.34;;;16.36
13410;BMP180;6775;49.574;11.170;2023-09-19T04:16:11;97221.97;;;16.39
13410;BMP180;6775;49.574;11.170;2023-09-19T04:18:40;97229.75;;;16.39
13410;BMP180;6775;49.574;11.170;2023-09-19T04:21:09;97226.19;;;16.40
13410;BMP180;6775;49.574;11.170;2023-09-19T04:23:37;97224.25;;;16.42
13410;BMP180;6775;49.574;11.170;2023-09-19T04:26:06;97228.28;;;16.44
13410;BMP180;6775;49.574;11.170;2023-09-19T04:28:34;97234.28;;;16.45
13410;BMP180;6775;49.574;11.170;2023-09-19T04:31:05;97233.16;;;16.47
13410;BMP180;6775;49.574;11.170;2023-09-19T04:33:34;97232.03;;;16.50
13410;BMP180;6775;49.574;11.170;2023-09-19T04:36:03;97237.84;;;16.52
13410;BMP180;6775;49.574;11.170;2023-09-19T04:38:55;97237.69;;;16.53
13410;BMP180;6775;49.574;11.170;2023-09-19T04:41:24;97237.34;;;16.56
13410;BMP180;6775;49.574;11.170;2023-09-19T04:43:52;97242.38;;;16.58
13410;BMP180;6775;49.574;11.170;2023-09-19T04:46:20;97240.28;;;16.61
13410;BMP180;6775;49.574;11.170;2023-09-19T04:48:48;97247.91;;;16.63
13410;BMP180;6775;49.574;11.170;2023-09-19T04:51:16;97251.28;;;16.63
13410;BMP180;6775;49.574;11.170;2023-09-19T04:53:45;97254.34;;;16.66
13410;BMP180;6775;49.574;11.170;2023-09-19T04:56:16;97246.09;;;16.71
13410;BMP180;6775;49.574;11.170;2023-09-19T04:58:44;97253.38;;;16.75
13410;BMP180;6775;49.574;11.170;2023-09-19T05:01:12;97251.88;;;16.81
13410;BMP180;6775;49.574;11.170;2023-09-19T05:03:41;97249.63;;;16.86
13410;BMP180;6775;49.574;11.170;2023-09-19T05:06:11;97252.06;;;16.87
13410;BMP180;6775;49.574;11.170;2023-09-19T05:08:39;97254.47;;;16.89
13410;BMP180;6775;49.574;11.170;2023-09-19T05:11:07;97262.72;;;16.92
13410;BMP180;6775;49.574;11.170;2023-09-19T05:13:37;97267.75;;;16.94
13410;BMP180;6775;49.574;11.170;2023-09-19T05:16:05;97265.03;;;16.95
13410;BMP180;6775;49.574;11.170;2023-09-19T05:18:36;97265.03;;;16.95
13410;BMP180;6775;49.574;11.170;2023-09-19T05:21:05;97268.25;;;16.97
13410;BMP180;6775;49.574;11.170;2023-09-19T05:23:33;97264.69;;;16.98
13410;BMP180;6775;49.574;11.170;2023-09-19T05:26:01;97266.63;;;16.96
13410;BMP180;6775;49.574;11.170;2023-09-19T05:28:30;97265.66;;;16.97
13410;BMP180;6775;49.574;11.170;2023-09-19T05:31:02;97264.34;;;17.01
13410;BMP180;6775;49.574;11.170;2023-09-19T05:33:30;97270.50;;;17.00
13410;BMP180;6775;49.574;11.170;2023-09-19T05:35:59;97273.56;;;17.04
13410;BMP180;6775;49.574;11.170;2023-09-19T05:38:28;97280.38;;;17.05
13410;BMP180;6775;49.574;11.170;2023-09-19T05:40:56;97276.34;;;17.02
13410;BMP180;6775;49.574;11.170;2023-09-19T05:43:24;97276.50;;;17.01
13410;BMP180;6775;49.574;11.170;2023-09-19T05:45:52;97284.94;;;17.03
13410;BMP180;6775;49.574;11.170;2023-09-19T05:48:24;97289.16;;;17.04
13410;BMP180;6775;49.574;11.170;2023-09-19T05:50:52;97290.66;;;16.98
13410;BMP180;6775;49.574;11.170;2023-09-19T05:53:20;97281.88;;;16.99
13410;BMP180;6775;49.574;11.170;2023-09-19T05:55:50;97298.72;;;17.03
13410;BMP180;6775;49.574;11.170;2023-09-19T05:58:18;97294.16;;;17.05
13410;BMP180;6775;49.574;11.170;2023-09-19T06:00:47;97297.72;;;17.12
13410;BMP180;6775;49.574;11.170;2023-09-19T06:03:16;97302.25;;;17.18
13410;BMP180;6775;49.574;11.170;2023-09-19T06:05:47;97311.19;;;17.23
13410;BMP180;6775;49.574;11.170;2023-09-19T06:08:16;97319.50;;;17.27
13410;BMP180;6775;49.574;11.170;2023-09-19T06:10:44;97312.31;;;17.29
13410;BMP180;6775;49.574;11.170;2023-09-19T06:13:14;97323.03;;;17.34
13410;BMP180;6775;49.574;11.170;2023-09-19T06:15:42;97313.91;;;17.38
13410;BMP180;6775;49.574;11.170;2023-09-19T06:18:11;97323.66;;;17.44
13410;BMP180;6775;49.574;11.170;2023-09-19T06:20:42;97321.63;;;17.54
13410;BMP180;6775;49.574;11.170;2023-09-19T06:23:12;97325.53;;;17.58
13410;BMP180;6775;49.574;11.170;2023-09-19T06:25:41;97332.03;;;17.62
13410;BMP180;6775;49.574;11.170;2023-09-19T06:28:10;97337.03;;;17.63
13410;BMP180;6775;49.574;11.170;2023-09-19T06:30:40;97332.31;;;17.67
13410;BMP180;6775;49.574;11.170;2023-09-19T06:33:08;97340.59;;;17.70
13410;BMP180;6775;49.574;11.170;2023-09-19T06:35:38;97340.53;;;17.78
13410;BMP180;6775;49.574;11.170;2023-09-19T06:38:08;97345.88;;;17.84
13410;BMP180;6775;49.574;11.170;2023-09-19T06:40:41;97345.19;;;17.90
13410;BMP180;6775;49.574;11.170;2023-09-19T06:43:10;97342.41;;;18.00
13410;BMP180;6775;49.574;11.170;2023-09-19T06:45:39;97349.63;;;18.12
13410;BMP180;6775;49.574;11.170;2023-09-19T06:48:07;97340.75;;;18.37
13410;BMP180;6775;49.574;11.170;2023-09-19T06:50:37;97345.66;;;18.54
13410;BMP180;6775;49.574;11.170;2023-09-19T06:53:05;97346.03;;;18.66
13410;BMP180;6775;49.574;11.170;2023-09-19T06:55:33;97349.81;;;18.63
13410;BMP180;6775;49.574;11.170;2023-09-19T06:58:04;97356.47;;;18.66
13410;BMP180;6775;49.574;11.170;2023-09-19T07:00:33;97358.28;;;18.79
13410;BMP180;6775;49.574;11.170;2023-09-19T07:03:05;97363.03;;;18.98
13410;BMP180;6775;49.574;11.170;2023-09-19T07:05:36;97364.94;;;19.04
13410;BMP180;6775;49.574;11.170;2023-09-19T07:08:07;97369.63;;;19.23
13410;BMP180;6775;49.574;11.170;2023-09-19T07:10:36;97361.41;;;19.48
13410;BMP180;6775;49.574;11.170;2023-09-19T07:13:07;97358.44;;;19.66
13410;BMP180;6775;49.574;11.170;2023-09-19T07:15:39;97348.16;;;19.78
13410;BMP180;6775;49.574;11.170;2023-09-19T07:18:14;97357.69;;;20.00
13410;BMP180;6775;49.574;11.170;2023-09-19T07:20:44;97357.84;;;20.13
13410;BMP180;6775;49.574;11.170;2023-09-19T07:23:16;97350.94;;;20.06
13410;BMP180;6775;49.574;11.170;2023-09-19T07:25:45;97360.56;;;20.05
13410;BMP180;6775;49.574;11.170;2023-09-19T07:28:15;97351.81;;;20.13
13410;BMP180;6775;49.574;11.170;2023-09-19T07:30:43;97359.59;;;20.27
13410;BMP180;6775;49.574;11.170;2023-09-19T07:33:11;97363.09;;;20.55
13410;BMP180;6775;49.574;11.170;2023-09-19T07:35:40;97366.75;;;20.75
13410;BMP180;6775;49.574;11.170;2023-09-19T07:38:08;97361.41;;;20.82
13410;BMP180;6775;49.574;11.170;2023-09-19T07:40:38;97369.34;;;20.75
13410;BMP180;6775;49.574;11.170;2023-09-19T07:43:06;97388.81;;;20.58
13410;BMP180;6775;49.574;11.170;2023-09-19T07:45:36;97375.22;;;20.41
13410;BMP180;6775;49.574;11.170;2023-09-19T07:48:05;97381.75;;;20.31
13410;BMP180;6775;49.574;11.170;2023-09-19T07:50:40;97385.56;;;20.14
13410;BMP180;6775;49.574;11.170;2023-09-19T07:53:10;97390.78;;;20.14
13410;BMP180;6775;49.574;11.170;2023-09-19T07:55:40;97392.56;;;20.14
13410;BMP180;6775;49.574;11.170;2023-09-19T07:58:09;97400.56;;;20.12
13410;BMP180;6775;49.574;11.170;2023-09-19T08:00:38;97398.59;;;20.14
13410;BMP180;6775;49.574;11.170;2023-09-19T08:03:06;97394.47;;;20.20
13410;BMP180;6775;49.574;11.170;2023-09-19T08:05:44;97395.41;;;20.33
13410;BMP180;6775;49.574;11.170;2023-09-19T08:08:13;97401.84;;;20.72
13410;BMP180;6775;49.574;11.170;2023-09-19T08:10:42;97398.59;;;21.12
13410;BMP180;6775;49.574;11.170;2023-09-19T08:13:13;97393.13;;;21.55
13410;BMP180;6775;49.574;11.170;2023-09-19T08:15:44;97396.84;;;21.73
13410;BMP180;6775;49.574;11.170;2023-09-19T08:18:13;97406.34;;;21.80
13410;BMP180;6775;49.574;11.170;2023-09-19T08:20:42;97405.22;;;21.89
13410;BMP180;6775;49.574;11.170;2023-09-19T08:23:13;97406.78;;;21.84
13410;BMP180;6775;49.574;11.170;2023-09-19T08:25:41;97411.19;;;21.83
13410;BMP180;6775;49.574;11.170;2023-09-19T08:28:09;97418.63;;;21.80
13410;BMP180;6775;49.574;11.170;2023-09-19T08:30:39;97411.66;;;21.93
13410;BMP180;6775;49.574;11.170;2023-09-19T08:33:09;97410.06;;;22.39
13410;BMP180;6775;49.574;11.170;2023-09-19T08:35:38;97415.63;;;22.89
13410;BMP180;6775;49.574;11.170;2023-09-19T08:38:08;97418.50;;;23.39
13410;BMP180;6775;49.574;11.170;2023-09-19T08:40:38;97419.31;;;23.65
13410;BMP180;6775;49.574;11.170;2023-09-19T08:43:09;97417.56;;;24.09
13410;BMP180;6775;49.574;11.170;2023-09-19T08:45:37;97413.88;;;24.36
13410;BMP180;6775;49.574;11.170;2023-09-19T08:48:22;97406.63;;;24.19
13410;BMP180;6775;49.574;11.170;2023-09-19T08:50:56;97423.44;;;24.05
13410;BMP180;6775;49.574;11.170;2023-09-19T08:53:31;97423.47;;;23.98
13410;BMP180;6775;49.574;11.170;2023-09-19T08:56:03;97422.84;;;23.96
13410;BMP180;6775;49.574;11.170;2023-09-19T08:58:43;97427.72;;;23.99
13410;BMP180;6775;49.574;11.170;2023-09-19T09:01:15;97429.72;;;24.04
13410;BMP180;6775;49.574;11.170;2023-09-19T09:03:48;97419.97;;;24.17
13410;BMP180;6775;49.574;11.170;2023-09-19T09:06:19;97432.22;;;23.80
13410;BMP180;6775;49.574;11.170;2023-09-19T09:08:47;97428.97;;;23.65
13410;BMP180;6775;49.574;11.170;2023-09-19T09:11:16;97436.03;;;23.45
13410;BMP180;6775;49.574;11.170;2023-09-19T09:13:45;97433.41;;;23.19
13410;BMP180;6775;49.574;11.170;2023-09-19T09:16:14;97437.88;;;23.25
13410;BMP180;6775;49.574;11.170;2023-09-19T09:18:49;97437.47;;;23.22
13410;BMP180;6775;49.574;11.170;2023-09-19T09:21:20;97434.16;;;22.87
13410;BMP180;6775;49.574;11.170;2023-09-19T09:23:49;97444.94;;;22.46
13410;BMP180;6775;49.574;11.170;2023-09-19T09:26:42;97445.53;;;22.08
13410;BMP180;6775;49.574;11.170;2023-09-19T09:29:10;97445.38;;;21.76
13410;BMP180;6775;49.574;11.170;2023-09-19T09:31:41;97446.06;;;21.57
13410;BMP180;6775;49.574;11.170;2023-09-19T09:34:11;97446.66;;;21.59
13410;BMP180;6775;49.574;11.170;2023-09-19T09:36:41;97450.44;;;21.50
13410;BMP180;6775;49.574;11.170;2023-09-19T09:39:09;97451.41;;;21.49
13410;BMP180;6775;49.574;11.170;2023-09-19T09:41:45;97453.34;;;21.68
13410;BMP180;6775;49.574;11.170;2023-09-19T09:44:15;97467.66;;;21.99
13410;BMP180;6775;49.574;11.170;2023-09-19T09:46:45;97455.28;;;22.20
13410;BMP180;6775;49.574;11.170;2023-09-19T09:49:49;97452.84;;;22.59
13410;BMP180;6775;49.574;11.170;2023-09-19T09:52:45;97445.31;;;23.02
13410;BMP180;6775;49.574;11.170;2023-09-19T09:55:13;97443.31;;;23.30
13410;BMP180;6775;49.574;11.170;2023-09-19T09:57:41;97449.97;;;23.52
13410;BMP180;6775;49.574;11.170;2023-09-19T10:00:12;97451.38;;;23.74
13410;BMP180;6775;49.574;11.170;2023-09-19T10:02:48;97457.59;;;23.92
13410;BMP180;6775;49.574;11.170;2023-09-19T10:05:19;97450.28;;;24.13
13410;BMP180;6775;49.574;11.170;2023-09-19T10:07:55;97447.03;;;24.18
13410;BMP180;6775;49.574;11.170;2023-09-19T10:10:32;97454.78;;;24.00
13410;BMP180;6775;49.574;11.170;2023-09-19T10:13:14;97461.66;;;23.82
13410;BMP180;6775;49.574;11.170;2023-09-19T10:15:49;97450.78;;;23.46
13410;BMP180;6775;49.574;11.170;2023-09-19T10:18:21;97455.00;;;22.95
13410;BMP180;6775;49.574;11.170;2023-09-19T10:20:51;97456.44;;;22.51
13410;BMP180;6775;49.574;11.170;2023-09-19T10:23:21;97449.97;;;22.41
13410;BMP180;6775;49.574;11.170;2023-09-19T10:25:52;97456.59;;;22.43
13410;BMP180;6775;49.574;11.170;2023-09-19T10:28:21;97451.75;;;22.34
13410;BMP180;6775;49.574;11.170;2023-09-19T10:30:52;97448.59;;;22.51
13410;BMP180;6775;49.574;11.170;2023-09-19T10:33:23;97441.47;;;22.98
13410;BMP180;6775;49.574;11.170;2023-09-19T10:35:56;97442.72;;;23.54
13410;BMP180;6775;49.574;11.170;2023-09-19T10:38:27;97436.97;;;24.02
13410;BMP180;6775;49.574;11.170;2023-09-19T10:40:57;97435.47;;;24.32
13410;BMP180;6775;49.574;11.170;2023-09-19T10:43:31;97449.69;;;24.68
13410;BMP180;6775;49.574;11.170;2023-09-19T10:46:07;97429.41;;;24.81
13410;BMP180;6775;49.574;11.170;2023-09-19T10:48:38;97435.22;;;24.52
13410;BMP180;6775;49.574;11.170;2023-09-19T10:51:13;97436.88;;;24.40
13410;BMP180;6775;49.574;11.170;2023-09-19T10:53:48;97436.28;;;24.38
13410;BMP180;6775;49.574;11.170;2023-09-19T10:56:23;97438.19;;;24.12
13410;BMP180;6775;49.574;11.170;2023-09-19T10:59:06;97440.47;;;23.89
13410;BMP180;6775;49.574;11.170;2023-09-19T11:01:47;97444.91;;;23.76
13410;BMP180;6775;49.574;11.170;2023-09-19T11:04:23;97438.84;;;23.56
13410;BMP180;6775;49.574;11.170;2023-09-19T11:07:05;97440.28;;;23.46
13410;BMP180;6775;49.574;11.170;2023-09-19T11:09:47;97446.75;;;23.37
13410;BMP180;6775;49.574;11.170;2023-09-19T11:12:48;97431.81;;;23.31
13410;BMP180;6775;49.574;11.170;2023-09-19T11:16:18;97432.22;;;23.73
13410;BMP180;6775;49.574;11.170;2023-09-19T11:18:54;97427.59;;;24.32
13410;BMP180;6775;49.574;11.170;2023-09-19T11:24:34;97424.03;;;25.00
13410;BMP180;6775;49.574;11.170;2023-09-19T11:27:13;97425.28;;;24.91
13410;BMP180;6775;49.574;11.170;2023-09-19T11:29:41;97428.28;;;24.58
13410;BMP180;6775;49.574;11.170;2023-09-19T11:32:09;97426.44;;;24.21
13410;BMP180;6775;49.574;11.170;2023-09-19T11:34:48;97417.13;;;24.19
13410;BMP180;6775;49.574;11.170;2023-09-19T11:37:59;97417.03;;;24.51
13410;BMP180;6775;49.574;11.170;2023-09-19T11:41:39;97413.31;;;24.65
13410;BMP180;6775;49.574;11.170;2023-09-19T11:44:34;97412.25;;;24.29
13410;BMP180;6775;49.574;11.170;2023-09-19T11:47:10;97427.06;;;24.10
13410;BMP180;6775;49.574;11.170;2023-09-19T11:49:41;97417.22;;;23.99
13410;BMP180;6775;49.574;11.170;2023-09-19T11:52:11;97417.84;;;23.82
13410;BMP180;6775;49.574;11.170;2023-09-19T11:54:55;97414.03;;;23.84
13410;BMP180;6775;49.574;11.170;2023-09-19T11:57:27;97416.59;;;24.04
13410;BMP180;6775;49.574;11.170;2023-09-19T11:59:57;97404.19;;;24.24
13410;BMP180;6775;49.574;11.170;2023-09-19T12:02:38;97399.22;;;24.53
13410;BMP180;6775;49.574;11.170;2023-09-19T12:05:08;97413.31;;;24.65
13410;BMP180;6775;49.574;11.170;2023-09-19T12:07:43;97413.00;;;24.48
13410;BMP180;6775;49.574;11.170;2023-09-19T12:10:12;97403.81;;;24.20
13410;BMP180;6775;49.574;11.170;2023-09-19T12:12:48;97402.28;;;23.93
13410;BMP180;6775;49.574;11.170;2023-09-19T12:15:23;97402.34;;;23.74
13410;BMP180;6775;49.574;11.170;2023-09-19T12:17:55;97400.34;;;23.57
13410;BMP180;6775;49.574;11.170;2023-09-19T12:20:24;97405.59;;;23.44
13410;BMP180;6775;49.574;11.170;2023-09-19T12:22:52;97409.22;;;23.30
13410;BMP180;6775;49.574;11.170;2023-09-19T12:25:20;97398.53;;;23.12
13410;BMP180;6775;49.574;11.170;2023-09-19T12:27:50;97403.16;;;22.97
13410;BMP180;6775;49.574;11.170;2023-09-19T12:30:27;97418.44;;;22.87
13410;BMP180;6775;49.574;11.170;2023-09-19T12:33:00;97410.75;;;22.73
13410;BMP180;6775;49.574;11.170;2023-09-19T12:35:32;97403.31;;;22.83
13410;BMP180;6775;49.574;11.170;2023-09-19T12:38:02;97395.91;;;23.12
13410;BMP180;6775;49.574;11.170;2023-09-19T12:40:33;97406.78;;;23.41
13410;BMP180;6775;49.574;11.170;2023-09-19T12:43:06;97391.44;;;23.58
13410;BMP180;6775;49.574;11.170;2023-09-19T12:45:36;97395.09;;;23.70
13410;BMP180;6775;49.574;11.170;2023-09-19T12:48:20;97396.06;;;23.82
13410;BMP180;6775;49.574;11.170;2023-09-19T12:51:03;97392.81;;;23.86
13410;BMP180;6775;49.574;11.170;2023-09-19T12:53:37;97394.03;;;23.90
13410;BMP180;6775;49.574;11.170;2023-09-19T12:56:09;97388.19;;;23.82
13410;BMP180;6775;49.574;11.170;2023-09-19T12:58:51;97395.06;;;23.63
13410;BMP180;6775;49.574;11.170;2023-09-19T13:01:21;97391.03;;;23.48
13410;BMP180;6775;49.574;11.170;2023-09-19T13:04:13;97390.84;;;23.56
13410;BMP180;6775;49.574;11.170;2023-09-19T13:06:45;97382.97;;;23.56
13410;BMP180;6775;49.574;11.170;2023-09-19T13:09:17;97379.13;;;23.58
13410;BMP180;6775;49.574;11.170;2023-09-19T13:11:48;97388.84;;;23.51
13410;BMP180;6775;49.574;11.170;2023-09-19T13:14:21;97383.38;;;23.66
13410;BMP180;6775;49.574;11.170;2023-09-19T13:17:00;97386.19;;;23.71
13410;BMP180;6775;49.574;11.170;2023-09-19T13:19:40;97378.09;;;23.79
13410;BMP180;6775;49.574;11.170;2023-09-19T13:22:41;97374.44;;;23.86
13410;BMP180;6775;49.574;11.170;2023-09-19T13:25:15;97378.53;;;23.76
13410;BMP180;6775;49.574;11.170;2023-09-19T13:27:46;97374.88;;;23.70
13410;BMP180;6775;49.574;11.170;2023-09-19T13:30:17;97369.44;;;23.72
13410;BMP180;6775;49.574;11.170;2023-09-19T13:32:45;97367.41;;;23.80
13410;BMP180;6775;49.574;11.170;2023-09-19T13:35:15;97369.41;;;23.91
13410;BMP180;6775;49.574;11.170;2023-09-19T13:37:43;97369.72;;;24.07
13410;BMP180;6775;49.574;11.170;2023-09-19T13:40:18;97368.78;;;23.95
13410;BMP180;6775;49.574;11.170;2023-09-19T13:42:46;97364.34;;;23.89
13410;BMP180;6775;49.574;11.170;2023-09-19T13:45:16;97368.78;;;23.89
13410;BMP180;6775;49.574;11.170;2023-09-19T13:47:48;97370.81;;;23.81
13410;BMP180;6775;49.574;11.170;2023-09-19T13:50:17;97362.75;;;23.82
13410;BMP180;6775;49.574;11.170;2023-09-19T13:52:50;97369.59;;;23.89
13410;BMP180;6775;49.574;11.170;2023-09-19T13:55:20;97355.44;;;23.90
13410;BMP180;6775;49.574;11.170;2023-09-19T13:57:48;97360.69;;;23.97
13410;BMP180;6775;49.574;11.170;2023-09-19T14:00:21;97363.28;;;24.03
13410;BMP180;6775;49.574;11.170;2023-09-19T14:02:49;97352.34;;;24.13
13410;BMP180;6775;49.574;11.170;2023-09-19T14:05:18;97359.41;;;24.12
13410;BMP180;6775;49.574;11.170;2023-09-19T14:07:47;97364.66;;;24.12
13410;BMP180;6775;49.574;11.170;2023-09-19T14:10:16;97360.22;;;24.06
13410;BMP180;6775;49.574;11.170;2023-09-19T14:12:45;97365.31;;;24.01
13410;BMP180;6775;49.574;11.170;2023-09-19T14:15:13;97363.53;;;23.95
13410;BMP180;6775;49.574;11.170;2023-09-19T14:17:43;97356.66;;;23.94
13410;BMP180;6775;49.574;11.170;2023-09-19T14:20:12;97355.00;;;24.00
13410;BMP180;6775;49.574;11.170;2023-09-19T14:22:41;97356.84;;;23.99
13410;BMP180;6775;49.574;11.170;2023-09-19T14:25:09;97349.19;;;23.91
13410;BMP180;6775;49.574;11.170;2023-09-19T14:27:37;97352.66;;;23.85
13410;BMP180;6775;49.574;11.170;2023-09-19T14:30:07;97347.88;;;23.70
13410;BMP180;6775;49.574;11.170;2023-09-19T14:32:35;97352.72;;;23.47
13410;BMP180;6775;49.574;11.170;2023-09-19T14:35:07;97347.50;;;23.28
13410;BMP180;6775;49.574;11.170;2023-09-19T14:37:36;97351.75;;;23.16
13410;BMP180;6775;49.574;11.170;2023-09-19T14:40:08;97344.25;;;22.93